Time;durP1;ratioP1;P1;durP2;ratioP2;P2;SDS_P1;SDS_P2;PMS_P1;PMS_P2;Temp;Humidity;BMP_temperature;BMP_pressure;BME280_temperature;BME280_humidity;BME280_pressure;Samples;Min_cycle;Max_cycle;Signal;HPM_P1;HPM_P2
2023/10/31 00:02:06;;;;;;;21.30;10.50;;;;;;;13.00;87.52;97181.41;435057;1257;96625;-40
2023/10/31 00:12:09;;;;;;;15.80;9.10;;;;;;;13.05;87.43;97167.42;434669;1258;107277;-41
2023/10/31 00:22:12;;;;;;;15.20;7.20;;;;;;;13.13;87.67;97125.03;434712;1252;97966;-40
2023/10/31 00:32:15;;;;;;;8.90;5.00;;;;;;;13.45;87.80;97096.73;434704;1258;110782;-40
2023/10/31 00:42:18;;;;;;;14.20;4.60;;;;;;;13.84;87.48;97079.05;434537;1258;446634;-41
2023/10/31 00:52:22;;;;;;;11.40;5.50;;;;;;;14.00;86.94;97070.55;434646;1253;96997;-40
2023/10/31 01:14:27;;;;;;;10.30;5.40;;;;;;;13.89;86.20;97014.09;434736;1255;97886;-41
2023/10/31 01:34:34;;;;;;;12.80;5.20;;;;;;;13.90;85.92;96963.13;434686;1253;107445;-40
2023/10/31 01:44:37;;;;;;;7.30;3.80;;;;;;;14.00;85.47;96946.15;434676;1253;98518;-41
2023/10/31 01:54:40;;;;;;;11.00;3.60;;;;;;;14.06;85.04;96934.10;434444;1257;109482;-40
2023/10/31 02:04:43;;;;;;;10.30;4.30;;;;;;;14.08;84.80;96918.77;434591;1255;96681;-40
2023/10/31 02:14:47;;;;;;;8.30;3.70;;;;;;;14.10;84.36;96903.25;435818;1254;110489;-40
2023/10/31 02:24:50;;;;;;;8.00;4.40;;;;;;;14.18;83.78;96883.79;435149;1266;107623;-40
2023/10/31 02:34:53;;;;;;;9.30;4.20;;;;;;;14.17;83.40;96866.17;435200;1254;97903;-40
2023/10/31 02:44:57;;;;;;;8.30;3.40;;;;;;;14.16;83.10;96857.72;435127;1264;108541;-41
2023/10/31 02:55:00;;;;;;;5.20;2.60;;;;;;;14.21;82.80;96843.85;435141;1266;97509;-39
2023/10/31 03:05:05;;;;;;;6.90;3.40;;;;;;;14.18;82.40;96843.02;435158;1255;110708;-41
2023/10/31 03:15:09;;;;;;;13.70;3.10;;;;;;;14.18;82.22;96831.07;435157;1254;108557;-40
2023/10/31 03:25:12;;;;;;;10.50;4.00;;;;;;;14.19;82.01;96826.85;435197;1257;98536;-39
2023/10/31 03:35:16;;;;;;;9.00;3.50;;;;;;;14.24;81.59;96809.33;435152;1266;108297;-42
2023/10/31 03:45:19;;;;;;;8.30;3.90;;;;;;;14.27;81.50;96797.29;435193;1257;98387;-41
2023/10/31 03:55:47;;;;;;;11.90;3.90;;;;;;;14.34;80.97;96785.39;435165;1257;110343;-40
2023/10/31 04:15:57;;;;;;;8.90;4.10;;;;;;;14.48;80.45;96757.63;435324;1257;96619;-41
2023/10/31 04:26:01;;;;;;;15.60;3.90;;;;;;;14.64;80.09;96746.95;435254;1253;97909;-42
2023/10/31 04:36:06;;;;;;;8.50;3.40;;;;;;;14.89;79.70;96722.52;435166;1267;108218;-40
2023/10/31 04:46:09;;;;;;;8.00;3.50;;;;;;;15.13;79.30;96716.13;435208;1255;97743;-42
2023/10/31 05:06:19;;;;;;;11.40;3.70;;;;;;;15.36;78.11;96731.88;435200;1254;107492;-42
2023/10/31 05:16:22;;;;;;;8.50;3.30;;;;;;;15.53;77.38;96734.45;435143;1257;97886;-40
2023/10/31 05:46:40;;;;;;;10.80;4.50;;;;;;;15.60;76.23;96737.48;435298;1254;110464;-41
2023/10/31 05:56:44;;;;;;;9.10;4.60;;;;;;;15.55;76.00;96737.66;435299;1253;108024;-41
2023/10/31 06:06:47;;;;;;;9.40;4.10;;;;;;;15.47;75.91;96738.95;435420;1251;97843;-41
2023/10/31 06:26:58;;;;;;;10.50;4.40;;;;;;;15.60;75.83;96733.16;435219;1255;107772;-40
2023/10/31 06:37:03;;;;;;;5.40;2.80;;;;;;;15.77;75.36;96735.80;435171;1256;97874;-41
2023/10/31 06:47:06;;;;;;;11.60;2.30;;;;;;;16.25;73.28;96744.94;435301;1256;110563;-41
2023/10/31 06:57:09;;;;;;;6.80;2.70;;;;;;;16.77;70.17;96756.45;435217;1255;107851;-39
2023/10/31 07:07:13;;;;;;;11.40;2.60;;;;;;;16.93;69.25;96761.85;435219;1258;96583;-40
2023/10/31 07:17:16;;;;;;;7.90;2.60;;;;;;;16.94;68.91;96789.36;435237;1257;97877;-40
2023/10/31 07:27:21;;;;;;;8.10;2.50;;;;;;;16.90;67.46;96823.38;435181;1251;109525;-41
2023/10/31 07:37:24;;;;;;;7.20;2.80;;;;;;;16.55;68.65;96856.59;435173;1253;97478;-40
2023/10/31 07:47:28;;;;;;;7.60;2.60;;;;;;;15.78;71.20;96844.23;435066;1256;108298;-40
2023/10/31 07:57:31;;;;;;;8.90;3.20;;;;;;;15.35;72.98;96844.28;435280;1253;96685;-39
2023/10/31 08:07:34;;;;;;;6.60;2.50;;;;;;;15.25;74.49;96860.66;435144;1256;110253;-40
2023/10/31 08:17:38;;;;;;;9.00;3.10;;;;;;;15.49;73.73;96877.70;435246;1256;97867;-39
2023/10/31 08:27:42;;;;;;;7.60;3.60;;;;;;;15.66;72.85;96882.02;435195;1254;97947;-41
2023/10/31 08:37:45;;;;;;;10.80;3.60;;;;;;;15.66;72.17;96895.49;435177;1254;110023;-41
2023/10/31 08:57:53;;;;;;;8.60;3.80;;;;;;;15.61;72.34;96909.89;435358;1256;96663;-41
2023/10/31 09:07:56;;;;;;;9.60;3.80;;;;;;;15.47;73.20;96941.15;435185;1257;107963;-40
2023/10/31 09:18:01;;;;;;;9.00;3.50;;;;;;;15.44;73.93;96965.04;435229;1254;97893;-41
2023/10/31 09:28:04;;;;;;;8.30;4.10;;;;;;;15.59;74.52;96967.08;435321;1253;110449;-41
2023/10/31 09:38:08;;;;;;;7.40;4.30;;;;;;;15.59;74.73;96969.38;435276;1254;109161;-40
2023/10/31 09:48:12;;;;;;;11.90;4.40;;;;;;;15.61;75.19;96988.59;435033;1255;97477;-41
2023/10/31 09:58:15;;;;;;;7.40;4.00;;;;;;;15.64;75.40;97004.73;435173;1253;106156;-41
2023/10/31 10:38:36;;;;;;;3.50;2.20;;;;;;;16.10;75.15;97021.70;435222;1253;97881;-41
2023/10/31 10:58:48;;;;;;;4.40;2.60;;;;;;;15.70;75.53;97039.39;435371;1256;98445;-41
2023/10/31 11:08:53;;;;;;;3.50;2.40;;;;;;;15.49;75.99;97067.45;435292;1253;110989;-41
2023/10/31 11:49:14;;;;;;;7.60;3.30;;;;;;;15.40;76.98;97066.60;435282;1254;97810;-40
2023/10/31 11:59:18;;;;;;;2.30;1.50;;;;;;;15.47;76.97;97067.31;435178;1256;109931;-41
2023/10/31 12:09:22;;;;;;;4.80;2.60;;;;;;;15.53;76.81;97078.84;435150;1256;109379;-41
2023/10/31 12:19:25;;;;;;;2.30;1.60;;;;;;;15.82;76.87;97079.04;435177;1251;97832;-41
2023/10/31 12:29:29;;;;;;;4.50;2.20;;;;;;;15.83;76.30;97052.84;435187;1256;97931;-41
2023/10/31 12:39:34;;;;;;;3.80;1.20;;;;;;;15.84;75.83;97038.27;434879;1253;349600;-41
2023/10/31 12:49:38;;;;;;;4.10;2.10;;;;;;;15.78;75.33;97049.16;435208;1256;97880;-40
2023/10/31 13:19:49;;;;;;;4.10;1.90;;;;;;;15.65;74.66;97060.41;435264;1255;112125;-39
2023/10/31 13:29:52;;;;;;;2.40;2.20;;;;;;;15.54;74.43;97061.45;435102;1256;106687;-41
2023/10/31 13:49:58;;;;;;;3.10;1.10;;;;;;;15.33;74.55;97083.49;435181;1255;97999;-40
2023/10/31 14:20:10;;;;;;;0.70;0.60;;;;;;;14.81;75.10;97120.39;435200;1254;107592;-41
2023/10/31 14:30:14;;;;;;;2.30;0.60;;;;;;;14.63;75.33;97130.58;435175;1266;97899;-41
2023/10/31 14:40:19;;;;;;;3.20;2.30;;;;;;;14.45;75.65;97138.38;435256;1254;109983;-41
2023/10/31 14:50:23;;;;;;;4.40;3.60;;;;;;;14.08;76.22;97150.40;435422;1256;108572;-40
2023/10/31 15:00:26;;;;;;;3.00;1.90;;;;;;;13.52;76.67;97159.17;435225;1255;97874;-41
2023/10/31 15:10:30;;;;;;;2.40;1.60;;;;;;;13.04;77.12;97168.73;435077;1256;98386;-44
2023/10/31 15:20:34;;;;;;;3.30;2.40;;;;;;;12.80;77.66;97180.11;435240;1256;109315;-40
2023/10/31 15:30:37;;;;;;;5.90;4.10;;;;;;;12.69;78.42;97182.48;435145;1253;98504;-42
2023/10/31 15:40:42;;;;;;;8.10;4.20;;;;;;;12.61;78.95;97172.84;435104;1253;108656;-41
2023/10/31 15:50:48;;;;;;;5.70;4.20;;;;;;;12.40;79.29;97170.88;435205;1256;97758;-40
2023/10/31 16:00:52;;;;;;;12.10;3.60;;;;;;;12.22;79.63;97193.48;435115;1253;111355;-41
2023/10/31 16:10:56;;;;;;;10.30;7.00;;;;;;;12.11;79.91;97201.30;435108;1256;107499;-41
2023/10/31 16:21:00;;;;;;;12.20;8.60;;;;;;;12.13;80.39;97212.89;435031;1253;97861;-41
2023/10/31 16:31:05;;;;;;;19.40;13.80;;;;;;;12.16;80.91;97216.00;435087;1256;108539;-40
2023/10/31 16:41:09;;;;;;;34.90;22.50;;;;;;;12.14;81.23;97234.08;435101;1252;98150;-41
2023/10/31 17:01:20;;;;;;;82.00;49.10;;;;;;;11.86;81.68;97252.53;435086;1256;108548;-41
2023/10/31 17:11:24;;;;;;;30.50;18.10;;;;;;;11.75;82.04;97264.24;435139;1256;97878;-40
2023/10/31 17:21:27;;;;;;;24.30;13.40;;;;;;;11.76;82.40;97278.75;435189;1256;110661;-40
2023/10/31 17:41:35;;;;;;;19.40;12.00;;;;;;;11.81;83.01;97322.55;435536;1256;97917;-41
2023/10/31 17:51:43;;;;;;;22.50;13.10;;;;;;;11.65;83.10;97343.50;435416;1253;108175;-41
2023/10/31 18:11:51;;;;;;;27.40;18.30;;;;;;;11.45;84.21;97388.05;435185;1256;110607;-41
2023/10/31 18:21:54;;;;;;;13.60;8.70;;;;;;;11.39;85.15;97424.89;435284;1264;110419;-40
2023/10/31 18:31:59;;;;;;;16.30;10.60;;;;;;;11.26;85.20;97424.98;435131;1254;97877;-40
2023/10/31 18:42:08;;;;;;;11.80;5.80;;;;;;;11.18;85.63;97421.43;435167;1256;107424;-41
2023/10/31 18:52:13;;;;;;;8.80;5.60;;;;;;;11.10;85.90;97423.41;435071;1256;96581;-41
2023/10/31 19:02:17;;;;;;;7.00;4.80;;;;;;;11.08;86.14;97422.02;435078;1256;111789;-41
2023/10/31 19:12:20;;;;;;;12.20;6.50;;;;;;;10.97;86.35;97432.50;435215;1256;108438;-40
2023/10/31 19:22:23;;;;;;;13.90;8.60;;;;;;;10.84;86.88;97443.51;435052;1255;98332;-40
2023/10/31 19:32:31;;;;;;;20.40;6.00;;;;;;;10.71;87.34;97447.60;435023;1267;109329;-40
2023/10/31 19:42:35;;;;;;;6.90;4.90;;;;;;;10.59;87.71;97455.00;435263;1265;97900;-39
2023/10/31 19:52:39;;;;;;;10.50;7.10;;;;;;;10.48;88.03;97458.23;435160;1256;110621;-39
2023/10/31 20:02:43;;;;;;;10.00;6.20;;;;;;;10.45;88.15;97476.67;435103;1256;107353;-41
2023/10/31 20:12:51;;;;;;;13.10;8.20;;;;;;;10.44;88.77;97483.33;435088;1254;97915;-40
2023/10/31 20:22:55;;;;;;;10.40;7.60;;;;;;;10.43;88.61;97497.33;435157;1256;108575;-40
2023/10/31 20:32:58;;;;;;;11.40;7.40;;;;;;;10.39;88.66;97505.17;435147;1256;97881;-40
2023/10/31 20:43:03;;;;;;;11.40;8.40;;;;;;;10.34;88.76;97516.29;435290;1256;110428;-41
2023/10/31 20:53:07;;;;;;;15.00;8.60;;;;;;;10.33;88.79;97515.01;435025;1256;106779;-41
2023/10/31 21:03:11;;;;;;;11.40;6.20;;;;;;;10.32;88.93;97519.49;435113;1257;98468;-42
2023/10/31 21:23:19;;;;;;;9.20;5.20;;;;;;;10.16;89.21;97527.02;435253;1256;97874;-40
2023/10/31 21:43:30;;;;;;;10.80;7.10;;;;;;;10.20;89.95;97560.94;435266;1267;108058;-40
2023/10/31 21:53:34;;;;;;;9.40;6.80;;;;;;;10.19;90.02;97576.66;435126;1266;97464;-42
2023/10/31 22:03:37;;;;;;;8.10;6.10;;;;;;;10.23;90.12;97595.58;435102;1266;108478;-40
2023/10/31 22:13:41;;;;;;;10.10;6.30;;;;;;;10.24;90.21;97600.30;435189;1257;97902;-40
2023/10/31 22:33:47;;;;;;;13.40;9.30;;;;;;;10.16;90.48;97618.73;434979;1258;108288;-40
2023/10/31 22:43:51;;;;;;;8.10;6.40;;;;;;;10.26;90.41;97626.94;435191;1257;98313;-39
2023/10/31 22:53:55;;;;;;;7.10;6.20;;;;;;;10.28;90.34;97631.91;435669;1257;107915;-41
2023/10/31 23:03:58;;;;;;;7.20;5.60;;;;;;;10.24;90.40;97633.16;435121;1257;97883;-40
2023/10/31 23:14:02;;;;;;;7.90;6.70;;;;;;;10.10;90.24;97638.33;434909;1257;110816;-39
2023/10/31 23:24:07;;;;;;;9.10;6.10;;;;;;;10.00;90.23;97648.60;435012;1251;109337;-40
2023/10/31 23:44:14;;;;;;;9.40;6.30;;;;;;;9.91;90.22;97669.77;435103;1257;107578;-40
2023/10/31 23:54:18;;;;;;;9.80;5.90;;;;;;;9.84;90.18;97685.25;435065;1255;97960;-40
